Time;durP1;ratioP1;P1;durP2;ratioP2;P2;SDS_P1;SDS_P2;PMS_P1;PMS_P2;Temp;Humidity;BMP_temperature;BMP_pressure;BME280_temperature;BME280_humidity;BME280_pressure;Samples;Min_cycle;Max_cycle;Signal;HPM_P1;HPM_P2
2024/03/03 00:02:10;;;;;;;3.50;3.30;;;16.80;69.70;;;;;;4977823;28;20047;-78
2024/03/03 00:04:36;;;;;;;3.50;3.30;;;16.80;70.40;;;;;;4967712;28;20495;-77
2024/03/03 00:07:02;;;;;;;3.67;3.38;;;16.80;70.30;;;;;;4984499;28;20053;-78
2024/03/03 00:09:27;;;;;;;3.40;3.20;;;16.80;70.00;;;;;;4964788;28;20512;-77
2024/03/03 00:11:53;;;;;;;3.45;3.25;;;16.80;70.40;;;;;;4980956;28;20508;-77
2024/03/03 00:14:21;;;;;;;4.10;3.80;;;16.70;69.90;;;;;;5002114;28;20389;-78
2024/03/03 00:16:46;;;;;;;3.70;3.50;;;16.80;69.90;;;;;;4967550;28;20031;-78
2024/03/03 00:19:12;;;;;;;3.47;3.25;;;16.70;69.60;;;;;;4950520;28;20045;-78
2024/03/03 00:21:37;;;;;;;2.90;2.70;;;16.70;70.30;;;;;;4967460;28;20562;-78
2024/03/03 00:24:03;;;;;;;3.38;3.17;;;16.70;69.80;;;;;;4984673;28;20058;-78
2024/03/03 00:26:30;;;;;;;3.03;2.83;;;16.70;70.00;;;;;;4986563;28;20133;-78
2024/03/03 00:28:56;;;;;;;3.20;3.00;;;16.70;69.50;;;;;;4987017;28;20053;-77
2024/03/03 00:31:22;;;;;;;3.30;3.10;;;16.70;69.60;;;;;;5003907;28;20050;-78
2024/03/03 00:33:48;;;;;;;2.83;2.63;;;16.70;69.20;;;;;;4968506;28;20078;-78
2024/03/03 00:36:13;;;;;;;3.03;2.83;;;16.70;69.60;;;;;;4985391;28;20054;-78
2024/03/03 00:38:39;;;;;;;3.42;3.17;;;16.70;70.00;;;;;;4985878;28;20046;-78
2024/03/03 00:41:04;;;;;;;3.05;2.85;;;16.70;69.10;;;;;;4990448;28;20042;-78
2024/03/03 00:43:33;;;;;;;2.92;2.72;;;16.70;69.10;;;;;;4983981;28;20178;-78
2024/03/03 00:45:59;;;;;;;2.47;2.38;;;16.60;68.60;;;;;;4970458;28;20039;-77
2024/03/03 00:48:24;;;;;;;2.70;2.50;;;16.60;68.60;;;;;;4988817;28;20039;-78
2024/03/03 00:50:50;;;;;;;2.40;2.30;;;16.70;69.50;;;;;;4983952;28;20034;-77
2024/03/03 00:53:16;;;;;;;2.47;2.28;;;16.60;68.80;;;;;;4971781;28;20104;-78
2024/03/03 00:55:46;;;;;;;2.63;2.53;;;16.60;68.70;;;;;;4953067;28;20154;-78
2024/03/03 00:58:12;;;;;;;2.42;2.30;;;16.60;68.50;;;;;;4969586;28;20078;-78
2024/03/03 01:00:39;;;;;;;2.90;2.70;;;16.60;68.40;;;;;;4952766;28;20038;-78
2024/03/03 01:03:05;;;;;;;2.80;2.60;;;16.60;68.60;;;;;;5003531;28;20054;-78
2024/03/03 01:05:30;;;;;;;2.38;2.28;;;16.60;68.50;;;;;;4989477;28;20053;-78
2024/03/03 01:07:56;;;;;;;2.60;2.50;;;16.60;68.50;;;;;;4986298;28;20411;-78
2024/03/03 01:10:22;;;;;;;2.10;2.00;;;16.60;68.40;;;;;;4970573;28;20482;-78
2024/03/03 01:12:47;;;;;;;2.50;2.30;;;16.60;68.40;;;;;;4969884;28;20284;-78
2024/03/03 01:15:13;;;;;;;2.47;2.28;;;16.60;68.40;;;;;;4986770;28;20046;-78
2024/03/03 01:17:38;;;;;;;2.78;1.98;;;16.60;68.40;;;;;;4967980;28;20043;-78
2024/03/03 01:20:06;;;;;;;2.20;2.10;;;16.50;69.10;;;;;;4986654;28;20042;-78
2024/03/03 01:22:32;;;;;;;2.05;1.95;;;16.50;68.30;;;;;;4969138;28;20105;-78
2024/03/03 01:24:57;;;;;;;2.20;2.10;;;16.50;68.40;;;;;;4987501;28;20463;-78
2024/03/03 01:27:23;;;;;;;1.85;1.75;;;16.50;68.40;;;;;;4988591;28;20570;-78
2024/03/03 01:29:48;;;;;;;2.38;2.22;;;16.50;68.40;;;;;;4970681;28;20074;-78
2024/03/03 01:32:14;;;;;;;2.58;2.40;;;16.50;68.40;;;;;;4949888;28;20042;-78
2024/03/03 01:34:41;;;;;;;2.20;2.10;;;16.50;68.30;;;;;;4984939;28;20046;-78
2024/03/03 01:37:06;;;;;;;1.90;1.80;;;16.50;68.50;;;;;;4967907;28;20049;-78
2024/03/03 01:39:32;;;;;;;2.22;2.13;;;16.50;68.40;;;;;;4985225;28;20051;-78
2024/03/03 01:41:58;;;;;;;2.28;2.17;;;16.40;68.30;;;;;;4953001;28;20072;-78
2024/03/03 01:44:23;;;;;;;2.40;2.20;;;16.50;68.40;;;;;;5002629;28;20524;-79
2024/03/03 01:46:49;;;;;;;1.90;1.80;;;16.40;68.30;;;;;;4984626;28;20508;-79
2024/03/03 01:49:14;;;;;;;1.95;1.85;;;16.50;68.50;;;;;;5002963;28;20073;-79
2024/03/03 01:51:40;;;;;;;1.98;1.88;;;16.50;68.40;;;;;;4953373;28;20168;-77
2024/03/03 01:54:06;;;;;;;2.30;2.20;;;16.40;68.30;;;;;;4969618;28;20503;-78
2024/03/03 01:56:31;;;;;;;2.10;2.00;;;16.40;68.20;;;;;;4955161;28;20054;-77
2024/03/03 01:58:57;;;;;;;2.33;2.20;;;16.40;68.30;;;;;;4986484;28;20096;-77
2024/03/03 02:01:23;;;;;;;1.90;1.80;;;16.40;68.20;;;;;;4968459;28;20080;-78
2024/03/03 02:03:49;;;;;;;1.83;1.73;;;16.40;68.30;;;;;;4967401;28;20424;-77
2024/03/03 02:06:15;;;;;;;2.00;1.90;;;16.40;68.20;;;;;;4985090;28;20073;-77
2024/03/03 02:08:41;;;;;;;1.92;1.70;;;16.40;68.30;;;;;;4982642;28;20069;-78
2024/03/03 02:11:07;;;;;;;2.03;1.92;;;16.40;68.30;;;;;;4985061;28;20061;-78
2024/03/03 02:13:33;;;;;;;1.98;1.88;;;16.40;68.40;;;;;;4967639;28;20065;-78
2024/03/03 02:15:58;;;;;;;1.98;1.85;;;16.40;68.40;;;;;;4968456;28;20515;-78
2024/03/03 02:18:24;;;;;;;1.80;1.70;;;16.30;68.20;;;;;;4953504;28;20073;-78
2024/03/03 02:20:49;;;;;;;1.75;1.65;;;16.40;68.30;;;;;;5002402;28;20707;-78
2024/03/03 02:23:15;;;;;;;1.45;1.35;;;16.30;68.10;;;;;;4968701;28;20408;-78
2024/03/03 02:25:40;;;;;;;1.73;1.63;;;16.30;68.10;;;;;;4980309;28;20053;-78
2024/03/03 02:28:06;;;;;;;1.88;1.77;;;16.30;68.20;;;;;;4952382;28;20061;-78
2024/03/03 02:30:32;;;;;;;1.60;1.50;;;16.30;68.20;;;;;;4983259;28;20046;-78
2024/03/03 02:32:57;;;;;;;1.80;1.70;;;16.30;68.20;;;;;;5001823;28;20062;-78
2024/03/03 02:35:23;;;;;;;2.13;2.03;;;16.30;68.20;;;;;;4986884;28;20112;-78
2024/03/03 02:37:48;;;;;;;1.60;1.50;;;16.30;68.30;;;;;;4968318;28;20057;-77
2024/03/03 02:40:14;;;;;;;1.65;1.55;;;16.30;68.30;;;;;;4983211;28;20504;-77
2024/03/03 02:42:40;;;;;;;1.58;1.27;;;16.30;68.30;;;;;;4985451;28;20462;-77
2024/03/03 02:45:06;;;;;;;2.90;1.48;;;16.30;68.40;;;;;;4950166;28;20105;-77
2024/03/03 02:47:31;;;;;;;1.35;1.25;;;16.30;68.40;;;;;;4986700;28;20030;-77
2024/03/03 02:49:57;;;;;;;1.70;1.60;;;16.20;68.10;;;;;;4985227;28;20042;-77
2024/03/03 02:52:22;;;;;;;1.65;1.55;;;16.20;68.20;;;;;;4983519;28;20127;-77
2024/03/03 02:54:48;;;;;;;1.40;1.30;;;16.20;68.20;;;;;;4982890;28;20035;-78
2024/03/03 02:57:13;;;;;;;1.50;1.40;;;16.20;68.20;;;;;;4950217;28;20058;-77
2024/03/03 02:59:39;;;;;;;1.40;1.30;;;16.20;68.20;;;;;;4985482;28;20060;-78
2024/03/03 03:02:04;;;;;;;1.60;1.50;;;16.20;68.10;;;;;;4987307;28;20679;-77
2024/03/03 03:04:30;;;;;;;1.17;1.17;;;16.20;68.10;;;;;;4952887;28;20459;-77
2024/03/03 03:06:56;;;;;;;1.77;1.67;;;16.20;68.20;;;;;;5000142;28;20042;-77
2024/03/03 03:09:22;;;;;;;1.50;1.40;;;16.20;68.10;;;;;;4984690;28;20121;-78
2024/03/03 03:11:47;;;;;;;2.55;1.55;;;16.20;68.10;;;;;;4967633;28;20069;-78
2024/03/03 03:14:13;;;;;;;1.55;1.40;;;16.20;68.10;;;;;;5000533;28;20050;-78
2024/03/03 03:16:41;;;;;;;1.38;1.27;;;16.20;68.10;;;;;;4982183;28;20129;-79
2024/03/03 03:19:08;;;;;;;1.50;1.40;;;16.20;68.10;;;;;;4983960;28;20682;-78
2024/03/03 03:21:34;;;;;;;1.02;1.02;;;16.20;68.00;;;;;;4950590;28;20046;-78
2024/03/03 03:23:59;;;;;;;1.40;1.30;;;16.10;67.90;;;;;;4985629;28;20807;-78
2024/03/03 03:26:25;;;;;;;1.17;1.10;;;16.10;68.00;;;;;;4987150;28;20137;-78
2024/03/03 03:28:50;;;;;;;1.02;1.02;;;16.10;68.00;;;;;;4983831;28;20038;-79
2024/03/03 03:31:16;;;;;;;1.05;1.05;;;16.10;67.70;;;;;;5000614;28;20064;-80
2024/03/03 03:33:42;;;;;;;1.40;1.30;;;16.10;67.80;;;;;;4982553;28;20070;-79
2024/03/03 03:36:09;;;;;;;1.10;1.10;;;16.10;67.70;;;;;;4986276;28;20042;-79
2024/03/03 03:38:34;;;;;;;1.90;1.30;;;16.10;67.80;;;;;;4986468;28;20138;-79
2024/03/03 03:41:04;;;;;;;1.30;1.20;;;16.10;67.90;;;;;;4967914;28;20144;-79
2024/03/03 03:43:30;;;;;;;1.30;1.20;;;16.10;67.90;;;;;;5000674;28;20046;-78
2024/03/03 03:45:56;;;;;;;1.23;1.15;;;16.10;67.80;;;;;;4983391;28;20515;-78
2024/03/03 03:48:23;;;;;;;1.00;1.00;;;16.10;67.80;;;;;;4965325;28;20030;-78
2024/03/03 03:50:48;;;;;;;1.50;1.35;;;16.10;67.70;;;;;;4984174;28;20073;-78
2024/03/03 03:53:14;;;;;;;1.30;1.30;;;16.10;67.80;;;;;;4985515;28;20038;-79
2024/03/03 03:55:39;;;;;;;1.10;1.10;;;16.10;67.80;;;;;;4983526;28;20038;-78
2024/03/03 03:58:05;;;;;;;1.30;1.20;;;16.10;67.80;;;;;;4967460;28;20042;-78
2024/03/03 04:00:31;;;;;;;1.13;1.13;;;16.10;67.80;;;;;;4984946;28;20065;-79
2024/03/03 04:02:56;;;;;;;1.92;1.50;;;16.10;68.70;;;;;;4952859;28;20045;-80
2024/03/03 04:05:22;;;;;;;1.35;1.25;;;16.10;68.60;;;;;;4975665;28;20441;-78
2024/03/03 04:07:47;;;;;;;1.10;1.10;;;16.10;68.00;;;;;;4967310;28;20034;-78
2024/03/03 04:10:17;;;;;;;1.08;1.00;;;16.00;67.70;;;;;;4969646;28;20514;-78
2024/03/03 04:12:43;;;;;;;1.50;1.40;;;16.00;67.80;;;;;;4969365;28;20033;-78
2024/03/03 04:15:10;;;;;;;0.90;0.90;;;16.00;67.90;;;;;;4971036;28;20500;-78
2024/03/03 04:17:35;;;;;;;1.23;1.23;;;16.00;67.70;;;;;;4987390;28;20114;-78
2024/03/03 04:20:01;;;;;;;1.02;1.02;;;16.00;67.70;;;;;;4953067;28;20118;-78
2024/03/03 04:22:26;;;;;;;0.82;0.68;;;16.00;67.50;;;;;;5004068;28;20050;-79
2024/03/03 04:24:52;;;;;;;0.98;0.98;;;16.00;67.60;;;;;;5002925;28;20410;-79
2024/03/03 04:27:17;;;;;;;0.80;0.80;;;16.00;67.50;;;;;;4955120;28;20133;-79
2024/03/03 04:29:47;;;;;;;1.10;1.10;;;16.00;67.40;;;;;;4987733;28;20038;-78
2024/03/03 04:32:13;;;;;;;0.85;0.85;;;16.00;67.40;;;;;;4990120;28;20066;-78
2024/03/03 04:34:39;;;;;;;1.05;1.05;;;16.00;67.50;;;;;;4986120;28;20451;-78
2024/03/03 04:37:08;;;;;;;0.90;0.90;;;16.00;67.50;;;;;;4969019;28;20035;-78
2024/03/03 04:39:37;;;;;;;1.40;1.30;;;16.00;67.60;;;;;;4985622;28;20046;-78
2024/03/03 04:42:03;;;;;;;0.88;0.88;;;16.00;67.50;;;;;;4986827;28;20046;-78
2024/03/03 04:44:30;;;;;;;1.02;0.93;;;16.00;67.60;;;;;;4987339;28;20476;-79
2024/03/03 04:46:56;;;;;;;1.00;1.00;;;15.90;67.60;;;;;;4988172;28;20030;-78
2024/03/03 04:49:21;;;;;;;0.77;0.77;;;15.90;67.50;;;;;;4988997;28;20027;-78
2024/03/03 04:51:47;;;;;;;0.90;0.90;;;16.00;67.70;;;;;;4985317;28;20440;-78
2024/03/03 04:54:12;;;;;;;0.90;0.90;;;15.90;67.50;;;;;;4983631;28;20034;-78
2024/03/03 04:56:38;;;;;;;1.02;1.00;;;15.90;67.50;;;;;;4986293;28;20053;-78
2024/03/03 04:59:03;;;;;;;0.70;0.70;;;15.90;67.40;;;;;;4989787;28;20046;-78
2024/03/03 05:01:29;;;;;;;1.00;1.00;;;15.90;68.30;;;;;;4985813;28;20034;-78
2024/03/03 05:03:56;;;;;;;0.93;0.93;;;15.90;67.50;;;;;;4986060;28;20046;-78
2024/03/03 05:06:21;;;;;;;0.85;0.85;;;15.90;67.40;;;;;;4987467;28;20076;-78
2024/03/03 05:08:47;;;;;;;0.90;0.90;;;15.90;67.30;;;;;;4988332;28;20043;-78
2024/03/03 05:11:12;;;;;;;0.80;0.80;;;15.90;67.30;;;;;;4953223;28;20046;-78
2024/03/03 05:13:38;;;;;;;1.08;1.02;;;15.90;67.40;;;;;;4985411;28;20057;-78
2024/03/03 05:16:04;;;;;;;0.82;0.82;;;15.90;67.60;;;;;;4983348;28;20030;-78
2024/03/03 05:18:29;;;;;;;0.90;0.90;;;15.90;67.50;;;;;;4969681;28;20047;-78
2024/03/03 05:20:55;;;;;;;0.90;0.90;;;15.90;67.40;;;;;;5003097;28;20030;-79
2024/03/03 05:23:21;;;;;;;0.73;0.73;;;15.90;67.60;;;;;;4986796;28;20121;-78
2024/03/03 05:25:47;;;;;;;1.10;1.10;;;15.90;67.50;;;;;;4969312;28;20038;-79
2024/03/03 05:28:13;;;;;;;0.70;0.70;;;15.80;67.40;;;;;;4969814;28;20061;-78
2024/03/03 05:30:39;;;;;;;0.98;0.82;;;15.90;67.50;;;;;;4968775;28;20034;-78
2024/03/03 05:33:05;;;;;;;0.68;0.68;;;15.80;67.50;;;;;;4984689;28;20500;-78
2024/03/03 05:35:31;;;;;;;2.28;1.00;;;15.80;67.40;;;;;;4987002;28;20042;-79
2024/03/03 05:37:56;;;;;;;0.60;0.60;;;15.80;67.40;;;;;;4984674;28;20083;-79
2024/03/03 05:40:22;;;;;;;1.27;0.60;;;15.80;67.30;;;;;;4970018;28;20045;-79
2024/03/03 05:42:47;;;;;;;0.70;0.70;;;15.80;68.10;;;;;;5002275;28;20038;-78
2024/03/03 05:45:13;;;;;;;0.80;0.80;;;15.80;67.40;;;;;;5001101;28;20120;-79
2024/03/03 05:47:38;;;;;;;0.88;0.88;;;15.80;67.40;;;;;;4970968;28;20171;-77
2024/03/03 05:50:04;;;;;;;0.60;0.60;;;15.90;67.50;;;;;;4986440;28;20039;-77
2024/03/03 05:52:30;;;;;;;0.70;0.70;;;15.80;67.30;;;;;;5000325;28;20543;-77
2024/03/03 05:54:55;;;;;;;0.77;0.77;;;15.80;67.30;;;;;;4983037;28;20407;-78
2024/03/03 05:57:21;;;;;;;0.68;0.68;;;15.80;67.40;;;;;;4969940;28;20123;-77
2024/03/03 05:59:46;;;;;;;0.60;0.60;;;15.80;67.70;;;;;;4984647;28;20046;-78
2024/03/03 06:02:12;;;;;;;0.75;0.75;;;15.80;67.50;;;;;;4968831;28;20054;-78
2024/03/03 06:04:38;;;;;;;0.65;0.65;;;15.80;68.20;;;;;;4967037;28;20030;-77
2024/03/03 06:07:04;;;;;;;0.60;0.60;;;15.80;67.40;;;;;;4985323;28;20263;-77
2024/03/03 06:09:30;;;;;;;0.60;0.60;;;15.80;67.20;;;;;;4970941;28;20522;-77
2024/03/03 06:11:58;;;;;;;0.73;0.70;;;15.80;67.40;;;;;;4969350;28;20047;-78
2024/03/03 06:14:23;;;;;;;0.68;0.68;;;15.80;67.40;;;;;;4985778;28;20197;-77
2024/03/03 06:16:49;;;;;;;0.70;0.60;;;15.80;67.40;;;;;;4983834;28;20133;-78
2024/03/03 06:19:14;;;;;;;0.60;0.60;;;15.80;67.30;;;;;;4985709;28;20050;-78
2024/03/03 06:21:41;;;;;;;0.63;0.60;;;15.80;67.20;;;;;;4970871;28;20070;-78
2024/03/03 06:24:07;;;;;;;0.60;0.60;;;15.80;67.10;;;;;;4983559;28;20141;-78
2024/03/03 06:26:34;;;;;;;0.63;0.63;;;15.80;67.20;;;;;;4962379;28;20219;-77
2024/03/03 06:29:00;;;;;;;1.63;0.80;;;15.80;67.90;;;;;;4967706;28;20058;-78
2024/03/03 06:31:25;;;;;;;0.52;0.52;;;15.80;67.20;;;;;;4985537;28;20060;-78
2024/03/03 06:33:51;;;;;;;0.95;0.60;;;15.80;67.10;;;;;;4982693;28;20070;-77
2024/03/03 06:36:18;;;;;;;0.50;0.50;;;15.80;66.90;;;;;;4951436;28;20027;-78
2024/03/03 06:38:44;;;;;;;0.55;0.55;;;15.80;67.10;;;;;;4985163;28;20819;-77
2024/03/03 06:41:10;;;;;;;0.60;0.60;;;15.70;66.80;;;;;;4984899;28;20065;-77
2024/03/03 06:43:36;;;;;;;0.43;0.43;;;15.80;66.90;;;;;;4984453;28;20057;-78
2024/03/03 06:46:01;;;;;;;0.75;0.75;;;15.70;66.80;;;;;;4984659;28;20046;-77
2024/03/03 06:48:27;;;;;;;0.75;0.50;;;15.70;67.00;;;;;;4985398;28;20050;-78
2024/03/03 06:50:52;;;;;;;0.45;0.45;;;15.70;67.00;;;;;;4998556;28;20486;-78
2024/03/03 06:53:18;;;;;;;0.60;0.60;;;15.70;67.00;;;;;;4970777;28;20042;-78
2024/03/03 06:55:43;;;;;;;0.73;0.60;;;15.70;67.10;;;;;;4967866;28;20027;-78
2024/03/03 06:58:09;;;;;;;0.52;0.52;;;15.70;67.10;;;;;;4984227;28;20050;-77
2024/03/03 07:00:35;;;;;;;0.43;0.43;;;15.70;67.10;;;;;;4984202;28;20109;-78
2024/03/03 07:05:35;;;;;;;0.38;0.38;;;15.70;67.10;;;;;;5000940;28;20031;-79
2024/03/03 07:08:02;;;;;;;0.47;0.47;;;15.70;67.00;;;;;;4981047;28;20026;-79
2024/03/03 07:10:31;;;;;;;0.70;0.70;;;15.70;67.20;;;;;;4982937;28;20034;-79
2024/03/03 07:12:57;;;;;;;0.50;0.50;;;15.70;67.10;;;;;;4998546;28;20042;-78
2024/03/03 07:15:22;;;;;;;0.60;0.60;;;15.70;67.00;;;;;;4983779;28;20037;-79
2024/03/03 07:17:48;;;;;;;0.50;0.50;;;15.70;67.00;;;;;;4965669;28;20050;-79
2024/03/03 07:20:14;;;;;;;0.50;0.50;;;15.70;67.00;;;;;;4984898;28;20027;-79
2024/03/03 07:22:40;;;;;;;0.43;0.43;;;15.70;67.00;;;;;;4967995;28;20050;-79
2024/03/03 07:25:06;;;;;;;0.47;0.47;;;15.70;67.10;;;;;;4982220;28;20038;-78
2024/03/03 07:27:32;;;;;;;0.80;0.57;;;15.70;67.00;;;;;;4985233;28;20042;-78
2024/03/03 07:29:57;;;;;;;0.47;0.47;;;15.70;67.90;;;;;;4965134;28;25961;-78
2024/03/03 07:32:23;;;;;;;0.60;0.60;;;15.70;66.80;;;;;;4982079;28;20038;-79
2024/03/03 07:34:49;;;;;;;0.63;0.50;;;15.70;66.90;;;;;;4968970;28;20049;-78
2024/03/03 07:37:18;;;;;;;0.70;0.70;;;15.70;66.90;;;;;;4965279;28;20093;-79
2024/03/03 07:39:44;;;;;;;0.30;0.30;;;15.60;67.00;;;;;;4982158;28;20070;-79
2024/03/03 07:42:10;;;;;;;0.50;0.50;;;15.60;67.20;;;;;;4980182;28;20411;-80
2024/03/03 07:44:38;;;;;;;0.40;0.40;;;15.60;66.80;;;;;;4982092;28;20432;-79
2024/03/03 07:47:04;;;;;;;0.95;0.40;;;15.60;66.90;;;;;;4980857;28;20050;-79
2024/03/03 07:49:29;;;;;;;1.38;0.43;;;15.60;67.00;;;;;;4986297;28;20030;-79
2024/03/03 07:51:55;;;;;;;0.60;0.60;;;15.60;66.80;;;;;;4983037;28;20456;-79
2024/03/03 07:54:20;;;;;;;0.50;0.50;;;15.60;66.80;;;;;;4982013;28;20030;-79
2024/03/03 07:56:46;;;;;;;0.65;0.45;;;15.70;66.70;;;;;;4967644;28;20054;-79
2024/03/03 07:59:12;;;;;;;0.32;0.32;;;15.70;67.50;;;;;;4986554;28;20037;-79
2024/03/03 08:01:38;;;;;;;0.38;0.38;;;15.70;66.60;;;;;;4983195;28;20492;-79
2024/03/03 08:04:04;;;;;;;0.40;0.40;;;15.70;67.00;;;;;;4984042;28;20081;-79
2024/03/03 08:06:30;;;;;;;0.50;0.50;;;15.70;66.70;;;;;;4982022;28;20056;-79
2024/03/03 08:08:55;;;;;;;0.40;0.40;;;15.70;66.60;;;;;;4982262;28;20415;-78
2024/03/03 08:11:21;;;;;;;0.55;0.55;;;15.70;66.70;;;;;;4988329;28;20046;-78
2024/03/03 08:13:46;;;;;;;0.30;0.30;;;15.70;67.40;;;;;;4984762;28;21143;-79
2024/03/03 08:16:12;;;;;;;0.40;0.40;;;15.70;66.60;;;;;;4984143;28;20084;-78
2024/03/03 08:18:37;;;;;;;0.60;0.60;;;15.70;66.70;;;;;;4981948;28;20050;-79
2024/03/03 08:21:03;;;;;;;0.50;0.50;;;15.70;66.70;;;;;;4983002;28;20041;-79
2024/03/03 08:23:29;;;;;;;0.50;0.50;;;15.70;66.60;;;;;;4984085;28;20051;-78
2024/03/03 08:25:55;;;;;;;0.30;0.30;;;15.70;66.70;;;;;;4981494;28;20069;-78
2024/03/03 08:28:21;;;;;;;0.40;0.40;;;15.70;66.70;;;;;;4984122;28;20042;-78
2024/03/03 08:30:46;;;;;;;0.50;0.50;;;15.60;66.60;;;;;;4966733;28;20418;-79
2024/03/03 08:33:12;;;;;;;0.52;0.52;;;15.70;66.60;;;;;;4999453;28;22182;-78
2024/03/03 08:35:38;;;;;;;0.60;0.57;;;15.70;66.60;;;;;;4985299;28;20484;-77
2024/03/03 08:38:03;;;;;;;0.43;0.40;;;15.70;66.60;;;;;;4982961;28;20038;-80
2024/03/03 08:40:29;;;;;;;0.40;0.38;;;15.70;66.70;;;;;;4985578;28;20043;-79
2024/03/03 08:42:55;;;;;;;0.35;0.30;;;15.70;67.80;;;;;;4965812;28;20074;-79
2024/03/03 08:45:20;;;;;;;0.32;0.32;;;15.70;67.10;;;;;;4281649;28;10000715;-79
2024/03/03 08:47:46;;;;;;;0.60;0.40;;;15.70;67.00;;;;;;4984200;28;20060;-78
2024/03/03 08:50:14;;;;;;;0.70;0.50;;;15.70;67.20;;;;;;4988985;28;20050;-78
2024/03/03 08:52:39;;;;;;;0.60;0.35;;;15.80;67.20;;;;;;4972226;28;20041;-78
2024/03/03 08:55:05;;;;;;;0.40;0.40;;;15.80;67.30;;;;;;4986539;28;20109;-77
2024/03/03 08:57:31;;;;;;;0.47;0.47;;;15.90;67.50;;;;;;4986335;28;20073;-78
2024/03/03 08:59:57;;;;;;;0.75;0.75;;;15.90;67.60;;;;;;5001343;28;20088;-78
2024/03/03 09:02:23;;;;;;;1.23;1.05;;;16.00;67.80;;;;;;5002997;28;20050;-77
2024/03/03 09:04:48;;;;;;;1.33;0.80;;;16.10;68.30;;;;;;4985694;28;20089;-78
2024/03/03 09:07:14;;;;;;;0.63;0.63;;;16.10;68.40;;;;;;4985180;28;20062;-78
2024/03/03 09:09:40;;;;;;;36.90;8.52;;;16.10;69.00;;;;;;5002520;28;20519;-78
2024/03/03 09:12:06;;;;;;;34.50;9.88;;;16.20;71.80;;;;;;4986429;28;20455;-78
2024/03/03 09:14:32;;;;;;;23.88;9.95;;;16.30;70.50;;;;;;5001970;28;20058;-77
2024/03/03 09:16:59;;;;;;;13.05;6.40;;;16.30;69.80;;;;;;4985857;28;20069;-78
2024/03/03 09:19:24;;;;;;;11.60;5.57;;;16.30;69.60;;;;;;4988455;28;20057;-78
2024/03/03 09:21:50;;;;;;;10.48;5.57;;;16.20;69.80;;;;;;4967942;28;20034;-78
2024/03/03 09:24:17;;;;;;;10.13;5.25;;;16.20;69.50;;;;;;4984421;28;20085;-77
2024/03/03 09:26:43;;;;;;;17.95;4.72;;;16.30;69.70;;;;;;4984981;28;20126;-78
2024/03/03 09:29:09;;;;;;;9.90;4.53;;;16.40;69.50;;;;;;4987981;28;20718;-77
2024/03/03 09:31:34;;;;;;;8.40;4.15;;;16.40;69.40;;;;;;4985152;28;20042;-79
2024/03/03 09:34:00;;;;;;;8.07;3.97;;;16.50;70.10;;;;;;4987082;28;20121;-79
2024/03/03 09:36:25;;;;;;;7.07;3.55;;;16.50;69.90;;;;;;4986747;28;20061;-79
2024/03/03 09:38:51;;;;;;;6.63;3.50;;;16.50;68.90;;;;;;4987110;28;20101;-79
2024/03/03 09:41:18;;;;;;;4.10;3.10;;;16.50;69.40;;;;;;4987898;28;20516;-79
2024/03/03 09:43:45;;;;;;;6.47;3.70;;;16.60;69.00;;;;;;4967978;28;20042;-79
2024/03/03 09:46:11;;;;;;;3.33;2.50;;;16.60;69.30;;;;;;4953581;28;20204;-79
2024/03/03 09:48:36;;;;;;;4.18;2.85;;;16.60;69.00;;;;;;4984441;28;20125;-79
2024/03/03 09:51:02;;;;;;;4.68;2.60;;;16.70;69.10;;;;;;5001172;28;20428;-78
2024/03/03 09:53:27;;;;;;;4.82;2.70;;;16.60;69.20;;;;;;4988129;28;20096;-79
2024/03/03 09:55:53;;;;;;;4.15;2.22;;;16.70;68.80;;;;;;4986455;28;20506;-79
2024/03/03 09:58:19;;;;;;;4.03;2.15;;;16.70;68.80;;;;;;5002495;28;20047;-79
2024/03/03 10:00:45;;;;;;;2.20;2.00;;;16.70;68.90;;;;;;4969937;28;20041;-79
2024/03/03 10:03:10;;;;;;;5.60;2.20;;;16.70;68.60;;;;;;4967082;28;20437;-78
2024/03/03 10:05:37;;;;;;;3.17;2.30;;;16.70;68.50;;;;;;5002193;28;20034;-79
2024/03/03 10:08:03;;;;;;;3.25;2.00;;;16.80;68.70;;;;;;4985550;28;20030;-79
2024/03/03 10:10:35;;;;;;;2.20;1.77;;;16.80;68.70;;;;;;4983237;28;20047;-79
2024/03/03 10:13:07;;;;;;;2.30;1.90;;;16.70;68.60;;;;;;4969789;28;20046;-78
2024/03/03 10:15:33;;;;;;;3.13;2.03;;;16.70;68.70;;;;;;4982965;28;20504;-79
2024/03/03 10:18:01;;;;;;;2.15;1.98;;;16.80;68.40;;;;;;5000128;28;20476;-79
2024/03/03 10:20:28;;;;;;;2.03;1.83;;;16.80;68.60;;;;;;4984165;28;20080;-79
2024/03/03 10:22:54;;;;;;;1.92;1.73;;;16.80;68.50;;;;;;4984830;28;20160;-79
2024/03/03 10:25:21;;;;;;;2.20;1.40;;;16.80;68.50;;;;;;4986997;28;20616;-80
2024/03/03 10:27:50;;;;;;;2.38;1.98;;;16.80;69.10;;;;;;4986641;28;20083;-79
2024/03/03 10:30:17;;;;;;;2.28;1.60;;;16.80;68.30;;;;;;4987099;28;20045;-79
2024/03/03 10:32:43;;;;;;;4.25;1.52;;;16.80;68.20;;;;;;4986956;28;20104;-79
2024/03/03 10:35:13;;;;;;;1.92;1.83;;;16.80;68.10;;;;;;4986301;28;20042;-79
2024/03/03 10:37:51;;;;;;;1.50;1.40;;;16.80;68.00;;;;;;4983315;28;20054;-79
2024/03/03 10:40:17;;;;;;;1.92;1.67;;;16.80;67.90;;;;;;4984801;28;20416;-79
2024/03/03 10:42:42;;;;;;;1.83;1.67;;;16.80;68.00;;;;;;4984374;28;20567;-79
2024/03/03 10:45:09;;;;;;;2.08;1.80;;;16.80;67.90;;;;;;4986079;28;20050;-79
2024/03/03 10:47:34;;;;;;;2.63;1.63;;;16.80;67.90;;;;;;4988876;28;20042;-79
2024/03/03 10:50:00;;;;;;;1.63;1.50;;;16.80;67.70;;;;;;4969736;28;20046;-79
2024/03/03 10:52:26;;;;;;;1.63;1.52;;;16.80;67.50;;;;;;4984403;28;20042;-79
2024/03/03 10:54:52;;;;;;;1.75;1.55;;;16.90;67.60;;;;;;4986884;28;20121;-79
2024/03/03 10:57:19;;;;;;;1.63;1.20;;;16.80;67.50;;;;;;4967619;28;20061;-79
2024/03/03 10:59:45;;;;;;;1.20;1.10;;;16.90;67.60;;;;;;4987297;28;20431;-79
2024/03/03 11:02:12;;;;;;;1.85;1.50;;;16.90;67.40;;;;;;5003132;28;20038;-79
2024/03/03 11:04:38;;;;;;;1.33;1.00;;;16.90;67.60;;;;;;4982690;28;20134;-79
2024/03/03 11:07:03;;;;;;;2.65;1.13;;;16.90;67.30;;;;;;4998494;28;20128;-78
2024/03/03 11:09:29;;;;;;;1.55;1.15;;;16.90;67.20;;;;;;4985697;28;20055;-79
2024/03/03 11:12:00;;;;;;;1.60;1.20;;;16.90;67.40;;;;;;5002034;28;20532;-79
2024/03/03 11:14:43;;;;;;;1.27;1.08;;;16.90;67.20;;;;;;4983235;28;20054;-79
2024/03/03 11:17:10;;;;;;;0.77;0.77;;;16.90;67.30;;;;;;4986140;28;20042;-79
2024/03/03 11:19:38;;;;;;;0.93;0.90;;;16.90;68.10;;;;;;4985467;28;20058;-79
2024/03/03 11:22:06;;;;;;;1.10;1.00;;;16.90;67.40;;;;;;4995037;28;20519;-79
2024/03/03 11:24:32;;;;;;;1.48;0.90;;;16.90;67.30;;;;;;4953231;28;20058;-80
2024/03/03 11:27:08;;;;;;;1.50;1.30;;;16.90;67.30;;;;;;4999936;28;20053;-79
2024/03/03 11:29:34;;;;;;;1.00;0.93;;;16.90;67.30;;;;;;4982110;28;20046;-79
2024/03/03 11:31:59;;;;;;;1.30;0.95;;;16.90;67.10;;;;;;4968394;28;20042;-79
2024/03/03 11:34:25;;;;;;;0.90;0.73;;;17.00;67.10;;;;;;4966731;28;20042;-80
2024/03/03 11:36:50;;;;;;;0.90;0.90;;;16.90;66.70;;;;;;5000878;28;20053;-79
2024/03/03 11:39:16;;;;;;;1.90;0.93;;;17.00;66.90;;;;;;4967680;28;20041;-79
2024/03/03 11:41:45;;;;;;;0.80;0.80;;;17.00;67.10;;;;;;4984543;28;20078;-79
2024/03/03 11:44:32;;;;;;;1.13;1.02;;;16.90;67.10;;;;;;5001299;28;20046;-79
2024/03/03 11:46:58;;;;;;;0.80;0.70;;;16.90;67.20;;;;;;4979488;28;20053;-80
2024/03/03 11:49:24;;;;;;;2.92;0.80;;;16.90;68.00;;;;;;4975148;28;20046;-80
2024/03/03 11:51:50;;;;;;;3.42;0.82;;;16.80;66.90;;;;;;4993820;28;20042;-78
2024/03/03 11:54:28;;;;;;;0.80;0.73;;;16.80;68.10;;;;;;4979853;28;20119;-81
2024/03/03 11:56:59;;;;;;;3.38;0.90;;;16.90;67.10;;;;;;4990455;28;20766;-76
2024/03/03 11:59:31;;;;;;;2.78;1.00;;;16.90;66.90;;;;;;4632800;28;10000203;-78
2024/03/03 12:01:58;;;;;;;3.10;0.80;;;17.00;66.90;;;;;;4962806;28;20122;-79
2024/03/03 12:04:23;;;;;;;2.42;0.52;;;17.00;67.20;;;;;;4978088;28;20054;-78
2024/03/03 12:06:49;;;;;;;1.23;0.80;;;17.00;67.50;;;;;;4994389;28;20038;-78
2024/03/03 12:09:17;;;;;;;49.35;16.33;;;17.00;67.10;;;;;;4978262;28;20097;-78
2024/03/03 12:11:42;;;;;;;42.45;13.75;;;17.00;69.40;;;;;;4994227;28;20526;-78
2024/03/03 12:14:08;;;;;;;11.45;5.00;;;17.00;70.40;;;;;;4981606;28;20042;-77
2024/03/03 12:16:33;;;;;;;6.60;3.33;;;17.00;69.30;;;;;;4985273;28;20089;-77
2024/03/03 12:18:59;;;;;;;5.85;2.85;;;17.20;69.40;;;;;;4984907;28;20046;-77
2024/03/03 12:21:25;;;;;;;4.30;2.33;;;17.30;69.30;;;;;;4968971;28;20062;-78
2024/03/03 12:23:51;;;;;;;4.05;1.75;;;17.30;69.20;;;;;;4970881;28;20050;-77
2024/03/03 12:26:18;;;;;;;4.75;2.00;;;17.40;68.80;;;;;;4970561;28;20096;-78
2024/03/03 12:28:43;;;;;;;5.20;2.15;;;17.40;68.50;;;;;;5001859;28;20046;-78
2024/03/03 12:31:09;;;;;;;3.53;1.90;;;17.50;68.40;;;;;;4969653;28;20117;-78
2024/03/03 12:33:37;;;;;;;2.90;1.75;;;17.40;68.00;;;;;;4984988;28;20097;-77
2024/03/03 12:36:03;;;;;;;4.53;1.83;;;17.30;68.00;;;;;;4989819;28;20053;-78
2024/03/03 12:38:29;;;;;;;4.43;1.40;;;17.30;67.80;;;;;;5004047;28;20046;-77
2024/03/03 12:40:55;;;;;;;2.67;1.30;;;17.30;68.00;;;;;;4987878;28;20530;-75
2024/03/03 12:43:24;;;;;;;1.65;1.33;;;17.40;67.90;;;;;;4988266;28;20047;-76